createdAt,value
2023-01-01T00:00:49.345Z,57.00
2023-01-01T00:01:49.269Z,56.34
2023-01-01T00:02:49.243Z,54.82
2023-01-01T00:03:49.273Z,57.54
2023-01-01T00:04:49.226Z,55.60
2023-01-01T00:05:50.213Z,57.90
2023-01-01T00:06:49.200Z,52.83
2023-01-01T00:07:49.206Z,53.20
2023-01-01T00:08:49.198Z,52.53
2023-01-01T00:09:49.190Z,55.41
2023-01-01T00:10:49.172Z,54.67
2023-01-01T00:11:49.180Z,53.25
2023-01-01T00:12:49.170Z,55.90
2023-01-01T00:13:49.186Z,54.32
2023-01-01T00:14:49.172Z,52.84
2023-01-01T00:15:49.148Z,55.30
2023-01-01T00:16:49.200Z,54.71
2023-01-01T00:17:49.151Z,55.83
2023-01-01T00:18:49.136Z,55.80
2023-01-01T00:19:49.136Z,54.22
2023-01-01T00:20:49.115Z,54.74
2023-01-01T00:21:49.112Z,55.17
2023-01-01T00:22:56.806Z,54.29
2023-01-01T00:23:50.109Z,53.35
2023-01-01T00:24:49.114Z,55.24
2023-01-01T00:25:49.089Z,55.86
2023-01-01T00:26:49.072Z,55.27
2023-01-01T00:27:50.089Z,53.93
2023-01-01T00:28:49.068Z,53.99
2023-01-01T00:29:49.075Z,54.19
2023-01-01T00:30:49.059Z,53.18
2023-01-01T00:31:49.080Z,56.16
2023-01-01T00:32:54.925Z,55.34
2023-01-01T00:33:50.036Z,54.63
2023-01-01T00:34:49.031Z,51.95
2023-01-01T00:35:49.026Z,56.08
2023-01-01T00:36:49.015Z,51.54
2023-01-01T00:37:49.016Z,53.02
2023-01-01T00:38:49.043Z,54.48
2023-01-01T00:39:48.992Z,54.17
2023-01-01T00:40:49.017Z,51.97
2023-01-01T00:41:48.973Z,56.40
2023-01-01T00:42:49.031Z,55.27
2023-01-01T00:43:48.974Z,54.39
2023-01-01T00:44:48.950Z,51.64
2023-01-01T00:45:49.003Z,55.13
2023-01-01T00:46:48.964Z,56.52
2023-01-01T00:47:48.971Z,55.49
2023-01-01T00:48:48.958Z,54.65
2023-01-01T00:49:48.920Z,55.17
2023-01-01T00:50:48.921Z,55.86
2023-01-01T00:51:48.908Z,52.06
2023-01-01T00:52:48.987Z,55.68
2023-01-01T00:53:48.901Z,55.68
2023-01-01T00:54:48.887Z,55.32
2023-01-01T00:55:48.892Z,54.23
2023-01-01T00:56:48.880Z,56.54
2023-01-01T00:57:48.902Z,55.65
2023-01-01T00:59:00.480Z,54.94
2023-01-01T00:59:49.856Z,53.04
2023-01-01T01:00:48.928Z,56.23
2023-01-01T01:01:48.947Z,56.39
2023-01-01T01:02:48.924Z,54.39
2023-01-01T01:03:48.853Z,54.02
2023-01-01T01:04:48.841Z,53.40
2023-01-01T01:05:48.862Z,51.02
2023-01-01T01:06:48.836Z,54.71
2023-01-01T01:07:48.815Z,52.49
2023-01-01T01:08:48.823Z,54.48
2023-01-01T01:09:48.799Z,54.89
2023-01-01T01:10:48.799Z,54.68
2023-01-01T01:11:48.783Z,51.72
2023-01-01T01:12:48.883Z,51.75
2023-01-01T01:13:48.781Z,54.31
2023-01-01T01:14:48.797Z,52.46
2023-01-01T01:15:54.553Z,55.92
2023-01-01T01:16:50.861Z,56.09
2023-01-01T01:17:48.751Z,53.82
2023-01-01T01:18:48.774Z,51.83
2023-01-01T01:19:48.750Z,54.91
2023-01-01T01:20:48.755Z,56.01
2023-01-01T01:21:48.717Z,54.84
2023-01-01T01:22:48.718Z,55.44
2023-01-01T01:23:48.768Z,54.05
2023-01-01T01:24:48.703Z,55.90
2023-01-01T01:25:48.731Z,56.32
2023-01-01T01:26:48.697Z,56.05
2023-01-01T01:27:48.704Z,54.77
2023-01-01T01:28:50.275Z,55.08
2023-01-01T01:29:49.670Z,56.89
2023-01-01T01:30:48.736Z,55.80
2023-01-01T01:31:48.657Z,55.31
2023-01-01T01:32:48.666Z,53.80
2023-01-01T01:33:48.672Z,57.21
2023-01-01T01:34:48.631Z,53.82
2023-01-01T01:35:48.627Z,53.57
2023-01-01T01:36:48.648Z,53.73
2023-01-01T01:37:48.613Z,53.14
2023-01-01T01:38:48.611Z,55.13
2023-01-01T01:39:53.573Z,55.48
2023-01-01T01:40:50.610Z,55.30
2023-01-01T01:41:48.604Z,55.13
2023-01-01T01:42:48.590Z,53.95
2023-01-01T01:43:48.584Z,55.09
2023-01-01T01:44:48.570Z,54.84
2023-01-01T01:45:48.604Z,54.85
2023-01-01T01:46:48.574Z,53.43
2023-01-01T01:47:48.561Z,53.09
2023-01-01T01:48:48.574Z,53.62
2023-01-01T01:49:48.538Z,52.94
2023-01-01T01:50:48.531Z,57.99
2023-01-01T01:51:48.532Z,54.09
2023-01-01T01:52:48.527Z,53.84
2023-01-01T01:53:48.552Z,54.98
2023-01-01T01:54:48.515Z,52.28
2023-01-01T01:55:48.514Z,53.00
2023-01-01T01:56:48.493Z,55.49
2023-01-01T01:57:48.494Z,54.70
2023-01-01T01:58:48.492Z,57.13
2023-01-01T01:59:48.494Z,53.50
2023-01-01T02:00:48.477Z,50.45
2023-01-01T02:01:48.555Z,53.74
2023-01-01T02:02:48.729Z,51.74
2023-01-01T02:03:48.453Z,54.72
2023-01-01T02:04:48.522Z,53.51
2023-01-01T02:05:48.448Z,56.40
2023-01-01T02:06:48.436Z,54.26
2023-01-01T02:07:48.443Z,53.94
2023-01-01T02:08:48.418Z,53.89
2023-01-01T02:09:48.430Z,52.86
2023-01-01T02:10:48.409Z,55.95
2023-01-01T02:11:48.407Z,54.86
2023-01-01T02:12:48.413Z,52.18
2023-01-01T02:13:48.403Z,55.62
2023-01-01T02:14:48.386Z,55.26
2023-01-01T02:15:48.425Z,54.73
2023-01-01T02:16:48.399Z,53.71
2023-01-01T02:17:48.378Z,54.22
2023-01-01T02:18:48.360Z,54.73
2023-01-01T02:19:48.356Z,52.50
2023-01-01T02:20:48.359Z,53.20
2023-01-01T02:21:48.346Z,54.20
2023-01-01T02:22:48.352Z,55.87
2023-01-01T02:23:48.326Z,53.07
2023-01-01T02:24:48.316Z,54.83
2023-01-01T02:25:48.314Z,52.56
2023-01-01T02:26:48.322Z,53.50
2023-01-01T02:27:48.304Z,52.63
2023-01-01T02:28:48.305Z,53.07
2023-01-01T02:29:48.293Z,53.49
2023-01-01T02:30:48.333Z,52.91
2023-01-01T02:31:48.333Z,51.21
2023-01-01T02:32:48.267Z,50.99
2023-01-01T02:33:48.265Z,53.22
2023-01-01T02:34:48.262Z,51.65
2023-01-01T02:35:48.277Z,52.37
2023-01-01T02:36:48.257Z,54.28
2023-01-01T02:37:48.238Z,53.02
2023-01-01T02:38:48.229Z,52.66
2023-01-01T02:39:48.233Z,50.06
2023-01-01T02:40:48.229Z,51.89
2023-01-01T02:41:48.232Z,50.76
2023-01-01T02:42:49.223Z,52.25
2023-01-01T02:43:48.202Z,53.46
2023-01-01T02:44:48.189Z,53.23
2023-01-01T02:45:48.239Z,52.34
2023-01-01T02:46:48.201Z,52.17
2023-01-01T02:47:48.158Z,51.32
2023-01-01T02:48:48.163Z,52.73
2023-01-01T02:49:48.165Z,53.81
2023-01-01T02:50:48.151Z,53.53
2023-01-01T02:51:48.164Z,50.81
2023-01-01T02:52:48.139Z,50.78
2023-01-01T02:53:48.129Z,49.59
2023-01-01T02:54:48.125Z,53.99
2023-01-01T02:55:48.126Z,53.64
2023-01-01T02:56:48.123Z,56.00
2023-01-01T02:57:48.106Z,54.84
2023-01-01T02:58:48.093Z,55.05
2023-01-01T02:59:49.088Z,51.82
2023-01-01T03:00:48.127Z,54.51
2023-01-01T03:01:48.185Z,54.45
2023-01-01T03:02:50.993Z,53.69
2023-01-01T03:03:49.094Z,52.11
2023-01-01T03:04:48.060Z,54.28
2023-01-01T03:05:48.074Z,53.79
2023-01-01T03:06:48.044Z,52.03
2023-01-01T03:07:48.061Z,52.63
2023-01-01T03:08:48.044Z,52.70
2023-01-01T03:09:48.039Z,51.96
2023-01-01T03:10:48.022Z,53.62
2023-01-01T03:11:48.014Z,54.07
2023-01-01T03:12:48.017Z,53.36
2023-01-01T03:13:48.013Z,55.67
2023-01-01T03:14:47.993Z,52.89
2023-01-01T03:15:48.004Z,55.46
2023-01-01T03:16:47.985Z,51.16
2023-01-01T03:17:47.981Z,51.07
2023-01-01T03:18:47.996Z,50.06
2023-01-01T03:19:47.977Z,52.66
2023-01-01T03:20:47.956Z,51.20
2023-01-01T03:21:47.944Z,52.24
2023-01-01T03:22:47.948Z,52.76
2023-01-01T03:23:49.734Z,51.94
2023-01-01T03:24:48.951Z,52.55
2023-01-01T03:25:47.937Z,54.44
2023-01-01T03:26:47.913Z,55.09
2023-01-01T03:27:47.918Z,50.59
2023-01-01T03:28:47.898Z,53.95
2023-01-01T03:29:47.909Z,55.33
2023-01-01T03:30:47.976Z,58.69
2023-01-01T03:31:47.888Z,54.71
2023-01-01T03:32:47.874Z,56.57
2023-01-01T03:33:47.887Z,54.01
2023-01-01T03:34:47.852Z,52.32
2023-01-01T03:35:47.876Z,52.81
2023-01-01T03:36:47.845Z,51.98
2023-01-01T03:37:47.840Z,51.05
2023-01-01T03:38:47.857Z,52.69
2023-01-01T03:39:47.832Z,52.86
2023-01-01T03:40:47.825Z,51.93
2023-01-01T03:41:47.808Z,50.50
2023-01-01T03:42:47.814Z,50.22
2023-01-01T03:43:47.806Z,51.01
2023-01-01T03:44:47.807Z,50.55
2023-01-01T03:45:47.805Z,54.72
2023-01-01T03:46:47.876Z,49.75
2023-01-01T03:47:47.784Z,53.89
2023-01-01T03:48:47.780Z,51.12
2023-01-01T03:49:47.770Z,49.86
2023-01-01T03:50:47.776Z,48.48
2023-01-01T03:51:47.747Z,49.34
2023-01-01T03:52:48.744Z,50.52
2023-01-01T03:53:47.741Z,52.57
2023-01-01T03:54:47.734Z,53.60
2023-01-01T03:55:47.758Z,52.86
2023-01-01T03:56:47.729Z,53.68
2023-01-01T03:57:47.724Z,50.91
2023-01-01T03:58:47.720Z,49.56
2023-01-01T03:59:47.698Z,47.66
2023-01-01T04:00:47.699Z,49.57
2023-01-01T04:01:47.833Z,52.88
2023-01-01T04:02:47.762Z,50.63
2023-01-01T04:03:47.679Z,52.98
2023-01-01T04:04:47.684Z,51.69
2023-01-01T04:05:47.662Z,49.80
2023-01-01T04:06:47.682Z,51.16
2023-01-01T04:09:34.490Z,53.61
2023-01-01T04:10:34.490Z,49.31
2023-01-01T04:11:34.486Z,52.23
2023-01-01T04:12:34.489Z,49.31
2023-01-01T04:13:34.460Z,49.67
2023-01-01T04:14:34.460Z,52.50
2023-01-01T04:15:34.447Z,49.86
2023-01-01T04:16:34.475Z,53.38
2023-01-01T04:17:34.461Z,51.47
2023-01-01T04:18:34.433Z,50.78
2023-01-01T04:19:34.428Z,55.76
2023-01-01T04:20:34.433Z,49.90
2023-01-01T04:21:34.427Z,53.21
2023-01-01T04:22:34.437Z,49.69
2023-01-01T04:23:34.400Z,54.78
2023-01-01T04:24:34.399Z,49.75
2023-01-01T04:25:34.387Z,48.48
2023-01-01T04:26:34.395Z,50.97
2023-01-01T04:27:34.375Z,50.71
2023-01-01T04:28:34.364Z,54.31
2023-01-01T04:29:34.361Z,52.36
2023-01-01T04:32:22.095Z,49.38
2023-01-01T04:33:22.068Z,49.30
2023-01-01T04:34:22.057Z,50.77
2023-01-01T04:35:22.065Z,53.55
2023-01-01T04:36:22.057Z,50.73
2023-01-01T04:37:22.044Z,49.72
2023-01-01T04:38:22.030Z,50.96
2023-01-01T04:39:22.038Z,51.84
2023-01-01T04:40:22.010Z,49.48
2023-01-01T04:41:22.038Z,52.10
2023-01-01T04:42:22.015Z,54.14
2023-01-01T04:43:21.998Z,51.44
2023-01-01T04:44:21.990Z,51.58
2023-01-01T04:45:22.008Z,50.63
2023-01-01T04:46:21.989Z,49.70
2023-01-01T04:47:21.984Z,52.89
2023-01-01T04:48:21.963Z,48.62
2023-01-01T04:49:21.984Z,49.58
2023-01-01T04:50:21.954Z,50.44
2023-01-01T04:51:21.943Z,50.52
2023-01-01T04:52:21.937Z,50.99
2023-01-01T04:53:21.931Z,51.26
2023-01-01T04:54:21.930Z,48.91
2023-01-01T04:55:21.920Z,47.46
2023-01-01T04:56:21.923Z,49.73
2023-01-01T04:57:21.927Z,48.01
2023-01-01T04:58:21.901Z,52.44
2023-01-01T04:59:21.892Z,50.68
2023-01-01T05:00:21.895Z,51.44
2023-01-01T05:01:22.137Z,52.69
2023-01-01T05:02:22.024Z,51.95
2023-01-01T05:03:21.868Z,51.25
2023-01-01T05:04:21.870Z,52.16
2023-01-01T05:05:21.850Z,50.23
2023-01-01T05:06:21.861Z,48.95
2023-01-01T05:07:21.834Z,51.25
2023-01-01T05:08:21.846Z,51.56
2023-01-01T05:09:21.831Z,51.66
2023-01-01T05:10:21.828Z,48.88
2023-01-01T05:11:21.817Z,51.18
2023-01-01T05:12:21.805Z,49.70
2023-01-01T05:13:21.803Z,50.76
2023-01-01T05:14:22.806Z,51.83
2023-01-01T05:15:21.779Z,52.14
2023-01-01T05:16:21.809Z,51.76
2023-01-01T05:17:21.776Z,54.64
2023-01-01T05:18:21.776Z,55.06
2023-01-01T05:19:21.788Z,52.65
2023-01-01T05:20:21.760Z,51.60
2023-01-01T05:21:21.751Z,50.84
2023-01-01T05:22:21.758Z,50.53
2023-01-01T05:23:21.735Z,49.78
2023-01-01T05:24:21.748Z,50.43
2023-01-01T05:25:21.747Z,55.52
2023-01-01T05:26:21.726Z,51.65
2023-01-01T05:27:21.715Z,52.29
2023-01-01T05:28:21.741Z,52.06
2023-01-01T05:29:21.707Z,50.85
2023-01-01T05:30:21.727Z,53.44
2023-01-01T05:31:21.767Z,50.80
2023-01-01T05:32:21.744Z,47.66
2023-01-01T05:33:21.688Z,48.29
2023-01-01T05:34:21.669Z,51.66
2023-01-01T05:35:26.217Z,51.24
2023-01-01T05:36:22.663Z,50.47
2023-01-01T05:37:21.694Z,53.10
2023-01-01T05:38:21.645Z,50.95
2023-01-01T05:39:21.648Z,49.85
2023-01-01T05:40:21.631Z,52.20
2023-01-01T05:41:21.646Z,53.09
2023-01-01T05:42:21.621Z,48.26
2023-01-01T05:43:21.620Z,53.13
2023-01-01T05:44:21.619Z,51.59
2023-01-01T05:45:21.608Z,51.19
2023-01-01T05:46:21.703Z,52.52
2023-01-01T05:47:21.609Z,54.26
2023-01-01T05:48:21.587Z,49.60
2023-01-01T05:49:21.585Z,50.21
2023-01-01T05:50:21.574Z,53.25
2023-01-01T05:51:21.560Z,49.95
2023-01-01T05:52:26.279Z,48.36
2023-01-01T05:53:23.553Z,48.84
2023-01-01T05:54:21.544Z,48.25
2023-01-01T05:55:21.538Z,52.32
2023-01-01T05:56:21.539Z,48.58
2023-01-01T05:57:21.543Z,51.76
2023-01-01T05:58:21.530Z,47.46
2023-01-01T05:59:21.555Z,49.58
2023-01-01T06:00:21.514Z,49.22
2023-01-01T06:01:21.543Z,48.63
2023-01-01T06:02:21.593Z,48.80
2023-01-01T06:03:21.530Z,48.13
2023-01-01T06:04:21.511Z,50.74
2023-01-01T06:05:21.479Z,47.81
2023-01-01T06:06:21.475Z,47.49
2023-01-01T06:07:21.488Z,47.44
2023-01-01T06:08:21.476Z,49.95
2023-01-01T06:09:21.473Z,52.07
2023-01-01T06:10:21.453Z,49.02
2023-01-01T06:11:21.450Z,49.68
2023-01-01T06:12:21.435Z,48.29
2023-01-01T06:13:21.422Z,50.42
2023-01-01T06:14:21.449Z,53.05
2023-01-01T06:15:21.448Z,50.09
2023-01-01T06:16:21.439Z,50.43
2023-01-01T06:17:21.411Z,49.40
2023-01-01T06:18:21.537Z,49.20
2023-01-01T06:19:21.408Z,50.15
2023-01-01T06:20:21.386Z,50.11
2023-01-01T06:21:21.389Z,49.46
2023-01-01T06:22:21.381Z,51.99
2023-01-01T06:23:21.366Z,51.74
2023-01-01T06:24:21.355Z,52.53
2023-01-01T06:25:21.366Z,51.91
2023-01-01T06:26:21.361Z,51.27
2023-01-01T06:27:21.351Z,53.00
2023-01-01T06:28:21.339Z,50.93
2023-01-01T06:29:21.328Z,51.67
2023-01-01T06:30:21.338Z,52.28
2023-01-01T06:31:21.370Z,51.40
2023-01-01T06:32:21.302Z,53.15
2023-01-01T06:33:21.307Z,51.51
2023-01-01T06:34:21.298Z,52.79
2023-01-01T06:35:21.298Z,53.31
2023-01-01T06:36:21.288Z,53.03
2023-01-01T06:37:21.268Z,52.01
2023-01-01T06:38:21.264Z,53.47
2023-01-01T06:39:21.263Z,49.46
2023-01-01T06:40:21.254Z,50.11
2023-01-01T06:41:21.309Z,50.11
2023-01-01T06:42:21.243Z,47.97
2023-01-01T06:43:21.239Z,52.28
2023-01-01T06:44:21.234Z,53.29
2023-01-01T06:45:21.227Z,51.75
2023-01-01T06:46:21.323Z,53.05
2023-01-01T06:47:21.207Z,52.39
2023-01-01T06:48:21.200Z,53.42
2023-01-01T06:49:21.208Z,53.18
2023-01-01T06:50:21.202Z,50.66
2023-01-01T06:51:21.183Z,49.72
2023-01-01T06:52:21.178Z,50.69
2023-01-01T06:53:21.175Z,52.23
2023-01-01T06:54:21.170Z,51.61
2023-01-01T06:55:21.155Z,50.86
2023-01-01T06:56:21.158Z,50.35
2023-01-01T06:57:21.132Z,51.74
2023-01-01T06:58:21.179Z,52.58
2023-01-01T06:59:21.139Z,51.35
2023-01-01T07:00:21.140Z,50.14
2023-01-01T07:01:21.273Z,51.67
2023-01-01T07:02:21.331Z,53.30
2023-01-01T07:03:21.151Z,50.43
2023-01-01T07:04:21.102Z,50.81
2023-01-01T07:05:21.111Z,52.54
2023-01-01T07:06:21.090Z,52.14
2023-01-01T07:07:21.084Z,50.93
2023-01-01T07:08:21.066Z,48.75
2023-01-01T07:09:22.070Z,51.87
2023-01-01T07:10:21.057Z,50.40
2023-01-01T07:11:21.075Z,52.38
2023-01-01T07:12:21.059Z,50.69
2023-01-01T07:13:21.044Z,52.13
2023-01-01T07:14:21.038Z,52.83
2023-01-01T07:15:21.030Z,50.92
2023-01-01T07:16:21.063Z,50.73
2023-01-01T07:17:21.018Z,52.27
2023-01-01T07:18:21.002Z,52.73
2023-01-01T07:19:21.005Z,52.42
2023-01-01T07:20:21.005Z,54.84
2023-01-01T07:21:24.965Z,50.05
2023-01-01T07:22:22.995Z,53.70
2023-01-01T07:23:20.971Z,53.12
2023-01-01T07:24:20.970Z,53.99
2023-01-01T07:25:20.968Z,53.83
2023-01-01T07:26:20.963Z,52.65
2023-01-01T07:27:21.079Z,52.43
2023-01-01T07:28:20.963Z,51.55
2023-01-01T07:29:20.942Z,55.06
2023-01-01T07:30:20.934Z,54.84
2023-01-01T07:31:20.974Z,53.29
2023-01-01T07:32:20.927Z,53.19
2023-01-01T07:33:20.925Z,52.28
2023-01-01T07:34:20.902Z,52.43
2023-01-01T07:35:20.897Z,52.81
2023-01-01T07:36:20.900Z,52.60
2023-01-01T07:37:20.885Z,51.90
2023-01-01T07:38:20.901Z,53.03
2023-01-01T07:39:20.878Z,53.98
2023-01-01T07:40:21.890Z,53.19
2023-01-01T07:41:20.859Z,52.03
2023-01-01T07:42:20.860Z,53.81
2023-01-01T07:43:20.849Z,51.56
2023-01-01T07:44:20.863Z,53.11
2023-01-01T07:45:20.847Z,52.10
2023-01-01T07:46:20.865Z,53.31
2023-01-01T07:47:20.826Z,51.35
2023-01-01T07:48:20.824Z,52.34
2023-01-01T07:49:20.831Z,54.17
2023-01-01T07:50:20.803Z,52.10
2023-01-01T07:51:20.797Z,49.87
2023-01-01T07:52:20.806Z,53.29
2023-01-01T07:53:20.795Z,52.00
2023-01-01T07:54:20.797Z,52.17
2023-01-01T07:55:20.795Z,51.71
2023-01-01T07:56:20.763Z,51.70
2023-01-01T07:57:20.779Z,53.75
2023-01-01T07:58:20.762Z,54.78
2023-01-01T07:59:20.902Z,49.56
2023-01-01T08:00:20.764Z,50.07
2023-01-01T08:01:20.934Z,51.57
2023-01-01T08:02:20.793Z,51.63
2023-01-01T08:03:20.758Z,50.69
2023-01-01T08:04:20.718Z,50.29
2023-01-01T08:05:26.207Z,52.01
2023-01-01T08:06:20.727Z,51.35
2023-01-01T08:07:20.712Z,52.54
2023-01-01T08:08:20.706Z,51.63
2023-01-01T08:09:20.697Z,53.76
2023-01-01T08:10:20.698Z,52.82
2023-01-01T08:11:20.692Z,50.01
2023-01-01T08:12:20.666Z,54.70
2023-01-01T08:13:20.666Z,53.10
2023-01-01T08:14:20.666Z,54.56
2023-01-01T08:15:20.660Z,53.09
2023-01-01T08:16:20.771Z,52.21
2023-01-01T08:17:20.654Z,51.90
2023-01-01T08:18:20.645Z,51.67
2023-01-01T08:19:20.636Z,50.62
2023-01-01T08:20:20.630Z,54.17
2023-01-01T08:21:20.634Z,53.77
2023-01-01T08:22:20.610Z,53.30
2023-01-01T08:23:20.615Z,52.73
2023-01-01T08:24:20.610Z,53.12
2023-01-01T08:25:20.598Z,51.55
2023-01-01T08:26:20.593Z,53.44
2023-01-01T08:27:20.601Z,51.24
2023-01-01T08:28:20.592Z,55.12
2023-01-01T08:29:20.577Z,54.21
2023-01-01T08:30:20.574Z,55.44
2023-01-01T08:31:20.599Z,52.73
2023-01-01T08:32:20.549Z,49.82
2023-01-01T08:33:20.542Z,48.19
2023-01-01T08:34:20.538Z,51.27
2023-01-01T08:35:20.530Z,51.84
2023-01-01T08:36:20.541Z,55.01
2023-01-01T08:37:20.521Z,52.25
2023-01-01T08:38:20.535Z,51.30
2023-01-01T08:39:20.542Z,53.93
2023-01-01T08:40:20.497Z,53.34
2023-01-01T08:41:20.488Z,54.12
2023-01-01T08:42:20.492Z,53.43
2023-01-01T08:43:20.491Z,51.59
2023-01-01T08:44:20.482Z,54.14
2023-01-01T08:45:20.462Z,52.87
2023-01-01T08:46:20.495Z,53.91
2023-01-01T08:47:20.448Z,53.63
2023-01-01T08:48:23.202Z,53.37
2023-01-01T08:49:21.443Z,53.80
2023-01-01T08:50:20.425Z,52.98
2023-01-01T08:51:20.424Z,54.47
2023-01-01T08:52:20.415Z,54.42
2023-01-01T08:53:20.422Z,54.70
2023-01-01T08:54:20.406Z,53.37
2023-01-01T08:55:20.410Z,54.57
2023-01-01T08:56:20.531Z,55.23
2023-01-01T08:57:20.393Z,55.74
2023-01-01T08:58:20.414Z,55.39
2023-01-01T08:59:20.368Z,53.76
2023-01-01T09:00:20.356Z,52.79
2023-01-01T09:01:20.431Z,50.70
2023-01-01T09:02:20.502Z,53.48
2023-01-01T09:03:20.413Z,53.97
2023-01-01T09:04:20.351Z,54.79
2023-01-01T09:05:20.321Z,53.00
2023-01-01T09:06:20.324Z,53.67
2023-01-01T09:07:20.308Z,54.48
2023-01-01T09:08:20.420Z,53.30
2023-01-01T09:09:22.283Z,52.90
2023-01-01T09:10:20.287Z,54.43
2023-01-01T09:11:20.288Z,58.95
2023-01-01T09:12:20.266Z,53.67
2023-01-01T09:13:20.263Z,56.45
2023-01-01T09:14:20.248Z,56.97
2023-01-01T09:15:20.265Z,53.43
2023-01-01T09:16:20.264Z,53.89
2023-01-01T09:17:20.261Z,55.08
2023-01-01T09:18:20.218Z,55.23
2023-01-01T09:19:20.218Z,56.80
2023-01-01T09:20:20.222Z,54.80
2023-01-01T09:21:20.205Z,54.42
2023-01-01T09:22:20.229Z,55.34
2023-01-01T09:23:20.192Z,54.02
2023-01-01T09:24:20.211Z,56.89
2023-01-01T09:25:20.175Z,57.32
2023-01-01T09:26:20.163Z,52.68
2023-01-01T09:27:20.165Z,55.95
2023-01-01T09:28:25.433Z,56.17
2023-01-01T09:29:22.148Z,54.29
2023-01-01T09:30:20.135Z,54.77
2023-01-01T09:31:20.152Z,56.82
2023-01-01T09:32:20.124Z,54.91
2023-01-01T09:33:20.150Z,56.85
2023-01-01T09:34:20.127Z,56.68
2023-01-01T09:35:20.139Z,56.12
2023-01-01T09:36:20.099Z,55.34
2023-01-01T09:37:20.123Z,58.11
2023-01-01T09:38:20.124Z,54.02
2023-01-01T09:39:20.209Z,56.19
2023-01-01T09:40:20.077Z,56.48
2023-01-01T09:41:20.078Z,56.24
2023-01-01T09:42:20.073Z,55.46
2023-01-01T09:43:20.063Z,55.80
2023-01-01T09:44:20.071Z,56.73
2023-01-01T09:45:20.056Z,54.28
2023-01-01T09:46:20.101Z,54.15
2023-01-01T09:47:20.064Z,54.70
2023-01-01T09:48:20.044Z,56.49
2023-01-01T09:49:20.038Z,56.39
2023-01-01T09:50:20.030Z,54.57
2023-01-01T09:51:20.017Z,55.17
2023-01-01T09:52:20.002Z,56.49
2023-01-01T09:53:19.999Z,54.97
2023-01-01T09:54:20.032Z,56.95
2023-01-01T09:55:20.000Z,55.98
2023-01-01T09:56:19.978Z,56.82
2023-01-01T09:57:20.515Z,54.17
2023-01-01T09:58:20.969Z,54.21
2023-01-01T09:59:19.958Z,54.97
2023-01-01T10:00:19.964Z,58.05
2023-01-01T10:01:20.022Z,55.32
2023-01-01T10:02:19.956Z,55.92
2023-01-01T10:03:19.927Z,57.38
2023-01-01T10:04:19.949Z,57.12
2023-01-01T10:05:19.923Z,55.75
2023-01-01T10:06:19.904Z,57.69
2023-01-01T10:07:19.908Z,56.13
2023-01-01T10:08:23.477Z,56.71
2023-01-01T10:09:20.882Z,55.51
2023-01-01T10:10:19.894Z,55.73
2023-01-01T10:11:19.902Z,57.30
2023-01-01T10:12:19.896Z,54.77
2023-01-01T10:13:19.860Z,57.76
2023-01-01T10:14:19.856Z,57.49
2023-01-01T10:15:19.856Z,57.03
2023-01-01T10:16:24.264Z,53.57
2023-01-01T10:17:21.840Z,55.79
2023-01-01T10:18:19.876Z,56.90
2023-01-01T10:19:19.835Z,56.22
2023-01-01T10:20:19.843Z,57.09
2023-01-01T10:21:19.825Z,54.79
2023-01-01T10:22:19.815Z,56.71
2023-01-01T10:23:19.801Z,56.67
2023-01-01T10:24:19.793Z,57.03
2023-01-01T10:25:19.807Z,57.49
2023-01-01T10:26:19.780Z,55.35
2023-01-01T10:27:19.797Z,56.09
2023-01-01T10:28:19.786Z,55.43
2023-01-01T10:29:19.768Z,56.03
2023-01-01T10:30:19.761Z,55.85
2023-01-01T10:31:19.795Z,54.62
2023-01-01T10:32:19.766Z,55.56
2023-01-01T10:33:19.755Z,57.79
2023-01-01T10:34:19.731Z,57.65
2023-01-01T10:35:21.874Z,56.48
2023-01-01T10:36:19.712Z,56.86
2023-01-01T10:37:19.723Z,56.88
2023-01-01T10:38:19.731Z,57.13
2023-01-01T10:39:19.708Z,56.45
2023-01-01T10:40:19.726Z,57.18
2023-01-01T10:41:20.360Z,58.22
2023-01-01T10:42:20.702Z,57.13
2023-01-01T10:43:19.679Z,58.04
2023-01-01T10:44:19.673Z,56.90
2023-01-01T10:45:19.664Z,55.68
2023-01-01T10:46:19.704Z,55.93
2023-01-01T10:47:19.664Z,55.30
2023-01-01T10:48:19.654Z,57.91
2023-01-01T10:49:19.634Z,56.52
2023-01-01T10:50:19.627Z,57.80
2023-01-01T10:51:19.654Z,57.08
2023-01-01T10:52:19.612Z,57.16
2023-01-01T10:53:19.614Z,56.65
2023-01-01T10:54:19.602Z,58.49
2023-01-01T10:55:19.596Z,55.68
2023-01-01T10:56:20.707Z,56.86
2023-01-01T10:57:19.603Z,56.78
2023-01-01T10:58:19.581Z,56.51
2023-01-01T10:59:19.577Z,57.81
2023-01-01T11:00:19.571Z,57.75
2023-01-01T11:01:19.667Z,57.09
2023-01-01T11:02:19.895Z,58.96
2023-01-01T11:03:19.650Z,57.31
2023-01-01T11:04:19.582Z,56.65
2023-01-01T11:05:22.201Z,59.08
2023-01-01T11:06:20.541Z,55.45
2023-01-01T11:07:19.523Z,55.82
2023-01-01T11:08:19.521Z,56.90
2023-01-01T11:09:19.543Z,55.76
2023-01-01T11:10:19.580Z,57.16
2023-01-01T11:11:19.507Z,59.35
2023-01-01T11:13:02.377Z,57.78
2023-01-01T11:13:21.492Z,57.63
2023-01-01T11:14:19.491Z,55.99
2023-01-01T11:15:19.479Z,58.22
2023-01-01T11:16:19.514Z,59.09
2023-01-01T11:17:19.470Z,57.44
2023-01-01T11:18:19.454Z,58.10
2023-01-01T11:19:19.457Z,57.37
2023-01-01T11:20:19.479Z,58.64
2023-01-01T11:21:19.437Z,57.38
2023-01-01T11:22:19.418Z,58.30
2023-01-01T11:23:19.430Z,56.49
2023-01-01T11:24:19.452Z,57.22
2023-01-01T11:25:19.406Z,56.93
2023-01-01T11:26:19.424Z,58.07
2023-01-01T11:27:19.408Z,55.89
2023-01-01T11:28:19.387Z,57.46
2023-01-01T11:29:19.395Z,57.74
2023-01-01T11:30:19.495Z,58.85
2023-01-01T11:31:19.400Z,57.98
2023-01-01T11:32:19.363Z,55.64
2023-01-01T11:33:19.363Z,56.25
2023-01-01T11:34:19.355Z,57.39
2023-01-01T11:35:19.370Z,56.44
2023-01-01T11:36:19.339Z,58.29
2023-01-01T11:37:19.335Z,58.81
2023-01-01T11:38:22.050Z,58.42
2023-01-01T11:39:20.298Z,58.28
2023-01-01T11:40:19.381Z,55.48
2023-01-01T11:41:19.307Z,58.72
2023-01-01T11:42:19.294Z,54.54
2023-01-01T11:43:19.287Z,59.25
2023-01-01T11:44:19.286Z,58.11
2023-01-01T11:45:19.296Z,57.73
2023-01-01T11:46:19.333Z,57.04
2023-01-01T11:47:19.264Z,55.77
2023-01-01T11:48:19.261Z,57.67
2023-01-01T11:49:19.247Z,57.88
2023-01-01T11:50:19.311Z,57.46
2023-01-01T11:51:19.235Z,57.20
2023-01-01T11:52:19.244Z,56.69
2023-01-01T11:53:19.230Z,54.21
2023-01-01T11:54:19.210Z,58.76
2023-01-01T11:55:19.192Z,60.01
2023-01-01T11:56:20.216Z,57.91
2023-01-01T11:57:19.210Z,58.91
2023-01-01T11:58:20.074Z,58.87
2023-01-01T11:59:20.189Z,57.82
2023-01-01T12:00:19.223Z,56.46
2023-01-01T12:01:19.203Z,57.44
2023-01-01T12:02:19.203Z,58.04
2023-01-01T12:03:19.177Z,57.76
2023-01-01T12:04:19.223Z,57.54
2023-01-01T12:05:19.130Z,55.86
2023-01-01T12:06:19.129Z,56.97
2023-01-01T12:07:19.119Z,56.64
2023-01-01T12:08:19.108Z,57.39
2023-01-01T12:09:19.193Z,56.61
2023-01-01T12:10:19.101Z,56.82
2023-01-01T12:11:19.084Z,56.65
2023-01-01T12:12:19.095Z,56.70
2023-01-01T12:13:19.074Z,57.92
2023-01-01T12:14:19.076Z,57.77
2023-01-01T12:15:19.059Z,58.28
2023-01-01T12:16:19.068Z,58.82
2023-01-01T12:17:19.063Z,57.37
2023-01-01T12:18:19.043Z,59.02
2023-01-01T12:19:19.025Z,57.61
2023-01-01T12:20:19.019Z,58.49
2023-01-01T12:21:19.007Z,59.37
2023-01-01T12:22:19.009Z,58.90
2023-01-01T12:23:19.059Z,56.99
2023-01-01T12:24:19.003Z,57.79
2023-01-01T12:25:18.998Z,58.74
2023-01-01T12:26:18.979Z,58.58
2023-01-01T12:27:18.966Z,57.96
2023-01-01T12:28:18.981Z,58.25
2023-01-01T12:29:18.961Z,55.91
2023-01-01T12:30:18.960Z,55.81
2023-01-01T12:31:18.980Z,56.20
2023-01-01T12:32:18.935Z,58.13
2023-01-01T12:33:18.938Z,58.14
2023-01-01T12:34:18.967Z,57.32
2023-01-01T12:35:18.938Z,58.28
2023-01-01T12:36:18.923Z,58.93
2023-01-01T12:37:18.903Z,59.16
2023-01-01T12:38:18.892Z,58.83
2023-01-01T12:39:18.899Z,57.02
2023-01-01T12:40:24.352Z,59.09
2023-01-01T12:41:20.908Z,59.67
2023-01-01T12:42:18.897Z,57.87
2023-01-01T12:43:18.859Z,57.91
2023-01-01T12:44:19.902Z,58.10
2023-01-01T12:45:18.854Z,57.13
2023-01-01T12:46:18.914Z,59.51
2023-01-01T12:47:18.912Z,58.35
2023-01-01T12:48:18.824Z,57.28
2023-01-01T12:49:18.818Z,58.30
2023-01-01T12:50:18.857Z,57.32
2023-01-01T12:51:18.808Z,58.37
2023-01-01T12:52:19.836Z,58.84
2023-01-01T12:53:18.785Z,59.27
2023-01-01T12:54:18.791Z,60.19
2023-01-01T12:55:18.844Z,57.88
2023-01-01T12:56:22.830Z,58.62